sensor_id;sensor_type;location;lat;lon;timestamp;pressure;altitude;pressure_sealevel;temperature;humidity
11124;BME280;5616;42.692;23.312;2024-03-07T00:00:22;95108.09;;;10.18;73.95
11124;BME280;5616;42.692;23.312;2024-03-07T00:02:49;95105.94;;;10.15;73.89
11124;BME280;5616;42.692;23.312;2024-03-07T00:05:19;95105.16;;;10.14;74.08
11124;BME280;5616;42.692;23.312;2024-03-07T00:07:45;95106.09;;;10.13;73.72
11124;BME280;5616;42.692;23.312;2024-03-07T00:10:11;95097.59;;;10.13;74.16
11124;BME280;5616;42.692;23.312;2024-03-07T00:12:38;95099.06;;;10.09;73.85
11124;BME280;5616;42.692;23.312;2024-03-07T00:15:09;95099.44;;;10.06;73.38
11124;BME280;5616;42.692;23.312;2024-03-07T00:17:36;95086.13;;;9.91;72.59
11124;BME280;5616;42.692;23.312;2024-03-07T00:20:02;95093.63;;;9.92;74.85
11124;BME280;5616;42.692;23.312;2024-03-07T00:22:35;95091.28;;;9.91;74.86
11124;BME280;5616;42.692;23.312;2024-03-07T00:25:01;95086.94;;;9.84;75.44
11124;BME280;5616;42.692;23.312;2024-03-07T00:27:26;95078.09;;;9.80;74.74
11124;BME280;5616;42.692;23.312;2024-03-07T00:29:52;95075.13;;;9.83;75.35
11124;BME280;5616;42.692;23.312;2024-03-07T00:32:23;95081.81;;;9.84;76.04
11124;BME280;5616;42.692;23.312;2024-03-07T00:34:49;95074.78;;;9.73;74.83
11124;BME280;5616;42.692;23.312;2024-03-07T00:37:16;95080.75;;;9.67;75.35
11124;BME280;5616;42.692;23.312;2024-03-07T00:39:41;95073.63;;;9.69;76.15
11124;BME280;5616;42.692;23.312;2024-03-07T00:42:07;95075.25;;;9.64;76.52
11124;BME280;5616;42.692;23.312;2024-03-07T00:44:33;95078.44;;;9.59;77.66
11124;BME280;5616;42.692;23.312;2024-03-07T00:47:00;95077.22;;;9.62;76.19
11124;BME280;5616;42.692;23.312;2024-03-07T00:49:25;95080.00;;;9.60;75.51
11124;BME280;5616;42.692;23.312;2024-03-07T00:51:51;95074.91;;;9.54;74.47
11124;BME280;5616;42.692;23.312;2024-03-07T00:54:16;95071.34;;;9.55;75.29
11124;BME280;5616;42.692;23.312;2024-03-07T00:56:42;95068.19;;;9.53;74.58
11124;BME280;5616;42.692;23.312;2024-03-07T00:59:07;95065.03;;;9.57;75.12
11124;BME280;5616;42.692;23.312;2024-03-07T01:01:33;95061.44;;;9.58;75.10
11124;BME280;5616;42.692;23.312;2024-03-07T01:04:01;95056.31;;;9.58;75.72
11124;BME280;5616;42.692;23.312;2024-03-07T01:06:27;95050.03;;;9.54;75.26
11124;BME280;5616;42.692;23.312;2024-03-07T01:08:53;95049.66;;;9.51;75.79
11124;BME280;5616;42.692;23.312;2024-03-07T01:11:19;95047.28;;;9.49;74.78
11124;BME280;5616;42.692;23.312;2024-03-07T01:13:45;95045.69;;;9.48;75.48
11124;BME280;5616;42.692;23.312;2024-03-07T01:16:10;95043.72;;;9.50;75.68
11124;BME280;5616;42.692;23.312;2024-03-07T01:18:37;95046.91;;;9.46;75.87
11124;BME280;5616;42.692;23.312;2024-03-07T01:21:04;95049.69;;;9.44;75.71
11124;BME280;5616;42.692;23.312;2024-03-07T01:23:31;95040.56;;;9.48;75.61
11124;BME280;5616;42.692;23.312;2024-03-07T01:25:57;95047.72;;;9.46;76.20
11124;BME280;5616;42.692;23.312;2024-03-07T01:28:24;95048.28;;;9.48;75.66
11124;BME280;5616;42.692;23.312;2024-03-07T01:30:50;95052.63;;;9.48;75.29
11124;BME280;5616;42.692;23.312;2024-03-07T01:33:16;95044.91;;;9.48;75.39
11124;BME280;5616;42.692;23.312;2024-03-07T01:35:42;95043.00;;;9.43;74.99
11124;BME280;5616;42.692;23.312;2024-03-07T01:38:07;95034.69;;;9.41;75.90
11124;BME280;5616;42.692;23.312;2024-03-07T01:40:36;95032.78;;;9.30;75.03
11124;BME280;5616;42.692;23.312;2024-03-07T01:43:02;95029.06;;;9.26;75.87
11124;BME280;5616;42.692;23.312;2024-03-07T01:45:28;95038.53;;;9.25;75.96
11124;BME280;5616;42.692;23.312;2024-03-07T01:47:54;95036.38;;;9.22;76.75
11124;BME280;5616;42.692;23.312;2024-03-07T01:50:21;95035.22;;;9.18;76.51
11124;BME280;5616;42.692;23.312;2024-03-07T01:52:48;95038.00;;;9.17;77.26
11124;BME280;5616;42.692;23.312;2024-03-07T01:55:16;95042.16;;;9.18;77.15
11124;BME280;5616;42.692;23.312;2024-03-07T01:57:42;95051.41;;;9.19;76.68
11124;BME280;5616;42.692;23.312;2024-03-07T02:00:08;95062.03;;;9.22;77.54
11124;BME280;5616;42.692;23.312;2024-03-07T02:02:34;95060.44;;;9.28;77.96
11124;BME280;5616;42.692;23.312;2024-03-07T02:05:00;95058.69;;;9.22;76.81
11124;BME280;5616;42.692;23.312;2024-03-07T02:07:25;95056.13;;;9.22;76.53
11124;BME280;5616;42.692;23.312;2024-03-07T02:10:02;95049.75;;;9.31;76.42
11124;BME280;5616;42.692;23.312;2024-03-07T02:12:29;95047.75;;;9.33;76.57
11124;BME280;5616;42.692;23.312;2024-03-07T02:14:56;95044.22;;;9.34;77.22
11124;BME280;5616;42.692;23.312;2024-03-07T02:17:26;95040.66;;;9.35;76.13
11124;BME280;5616;42.692;23.312;2024-03-07T02:19:51;95036.09;;;9.37;76.95
11124;BME280;5616;42.692;23.312;2024-03-07T02:22:18;95037.53;;;9.26;77.15
11124;BME280;5616;42.692;23.312;2024-03-07T02:24:43;95029.22;;;9.31;77.19
11124;BME280;5616;42.692;23.312;2024-03-07T02:27:10;95023.69;;;9.34;75.61
11124;BME280;5616;42.692;23.312;2024-03-07T02:29:37;95022.28;;;9.38;75.80
11124;BME280;5616;42.692;23.312;2024-03-07T02:32:02;95028.38;;;9.37;75.84
11124;BME280;5616;42.692;23.312;2024-03-07T02:34:28;95036.34;;;9.29;75.38
11124;BME280;5616;42.692;23.312;2024-03-07T02:36:54;95040.28;;;9.31;74.85
11124;BME280;5616;42.692;23.312;2024-03-07T02:39:20;95044.22;;;9.34;73.47
11124;BME280;5616;42.692;23.312;2024-03-07T02:41:50;95056.06;;;9.35;73.69
11124;BME280;5616;42.692;23.312;2024-03-07T02:44:16;95053.72;;;9.27;72.88
11124;BME280;5616;42.692;23.312;2024-03-07T02:46:42;95054.34;;;9.22;72.95
11124;BME280;5616;42.692;23.312;2024-03-07T02:49:08;95046.25;;;9.19;71.95
11124;BME280;5616;42.692;23.312;2024-03-07T02:51:35;95051.41;;;9.19;72.95
11124;BME280;5616;42.692;23.312;2024-03-07T02:54:00;95052.22;;;9.13;72.74
11124;BME280;5616;42.692;23.312;2024-03-07T02:56:26;95055.03;;;9.05;72.87
11124;BME280;5616;42.692;23.312;2024-03-07T02:58:51;95053.06;;;9.00;73.22
11124;BME280;5616;42.692;23.312;2024-03-07T03:01:17;95058.22;;;8.94;73.80
11124;BME280;5616;42.692;23.312;2024-03-07T03:03:43;95066.75;;;8.88;73.11
11124;BME280;5616;42.692;23.312;2024-03-07T03:06:09;95070.50;;;8.78;74.13
11124;BME280;5616;42.692;23.312;2024-03-07T03:08:36;95066.19;;;8.72;75.74
11124;BME280;5616;42.692;23.312;2024-03-07T03:11:02;95055.16;;;8.72;74.43
11124;BME280;5616;42.692;23.312;2024-03-07T03:13:27;95057.94;;;8.70;75.39
11124;BME280;5616;42.692;23.312;2024-03-07T03:15:54;95057.75;;;8.65;75.91
11124;BME280;5616;42.692;23.312;2024-03-07T03:18:24;95053.22;;;8.54;76.61
11124;BME280;5616;42.692;23.312;2024-03-07T03:20:50;95056.78;;;8.53;76.65
11124;BME280;5616;42.692;23.312;2024-03-07T03:23:16;95058.75;;;8.58;75.67
11124;BME280;5616;42.692;23.312;2024-03-07T03:25:42;95066.41;;;8.64;75.69
11124;BME280;5616;42.692;23.312;2024-03-07T03:28:08;95056.75;;;8.66;74.65
11124;BME280;5616;42.692;23.312;2024-03-07T03:30:41;95061.28;;;8.64;75.84
11124;BME280;5616;42.692;23.312;2024-03-07T03:33:07;95060.34;;;8.52;76.00
11124;BME280;5616;42.692;23.312;2024-03-07T03:35:33;95070.59;;;8.52;75.98
11124;BME280;5616;42.692;23.312;2024-03-07T03:37:59;95082.41;;;8.53;76.80
11124;BME280;5616;42.692;23.312;2024-03-07T03:40:25;95096.25;;;8.52;76.83
11124;BME280;5616;42.692;23.312;2024-03-07T03:42:51;95066.25;;;8.59;76.58
11124;BME280;5616;42.692;23.312;2024-03-07T03:45:17;95066.22;;;8.66;75.59
11124;BME280;5616;42.692;23.312;2024-03-07T03:47:44;95060.88;;;8.74;75.41
11124;BME280;5616;42.692;23.312;2024-03-07T03:50:12;95053.75;;;8.76;74.44
11124;BME280;5616;42.692;23.312;2024-03-07T03:52:38;95054.56;;;8.70;74.68
11124;BME280;5616;42.692;23.312;2024-03-07T03:55:05;95062.28;;;8.63;75.57
11124;BME280;5616;42.692;23.312;2024-03-07T03:57:31;95051.25;;;8.50;75.01
11124;BME280;5616;42.692;23.312;2024-03-07T03:59:57;95044.19;;;8.52;75.40
11124;BME280;5616;42.692;23.312;2024-03-07T04:02:23;95051.25;;;8.50;75.49
11124;BME280;5616;42.692;23.312;2024-03-07T04:04:49;95052.50;;;8.34;74.64
11124;BME280;5616;42.692;23.312;2024-03-07T04:07:17;95058.00;;;8.31;74.68
11124;BME280;5616;42.692;23.312;2024-03-07T04:09:43;95048.34;;;8.33;74.76
11124;BME280;5616;42.692;23.312;2024-03-07T04:12:09;95049.34;;;8.32;75.07
11124;BME280;5616;42.692;23.312;2024-03-07T04:14:37;95051.91;;;8.32;74.37
11124;BME280;5616;42.692;23.312;2024-03-07T04:17:03;95056.81;;;8.40;74.18
11124;BME280;5616;42.692;23.312;2024-03-07T04:19:28;95058.78;;;8.45;74.30
11124;BME280;5616;42.692;23.312;2024-03-07T04:21:58;95060.72;;;8.49;74.73
11124;BME280;5616;42.692;23.312;2024-03-07T04:24:25;95056.00;;;8.46;73.03
11124;BME280;5616;42.692;23.312;2024-03-07T04:26:50;95060.16;;;8.47;73.65
11124;BME280;5616;42.692;23.312;2024-03-07T04:29:19;95059.94;;;8.42;72.54
11124;BME280;5616;42.692;23.312;2024-03-07T04:31:44;95060.56;;;8.44;73.28
11124;BME280;5616;42.692;23.312;2024-03-07T04:34:10;95059.94;;;8.42;72.28
11124;BME280;5616;42.692;23.312;2024-03-07T04:36:35;95059.19;;;8.35;73.08
11124;BME280;5616;42.692;23.312;2024-03-07T04:39:01;95061.56;;;8.30;73.56
11124;BME280;5616;42.692;23.312;2024-03-07T04:41:29;95060.00;;;8.29;72.00
11124;BME280;5616;42.692;23.312;2024-03-07T04:43:54;95053.25;;;8.28;72.12
11124;BME280;5616;42.692;23.312;2024-03-07T04:46:20;95060.00;;;8.29;72.04
11124;BME280;5616;42.692;23.312;2024-03-07T04:48:45;95064.69;;;8.25;73.56
11124;BME280;5616;42.692;23.312;2024-03-07T04:51:10;95055.81;;;8.28;72.87
11124;BME280;5616;42.692;23.312;2024-03-07T04:53:36;95065.50;;;8.32;72.34
11124;BME280;5616;42.692;23.312;2024-03-07T04:56:07;95069.25;;;8.36;73.02
11124;BME280;5616;42.692;23.312;2024-03-07T04:58:35;95076.94;;;8.30;73.49
11124;BME280;5616;42.692;23.312;2024-03-07T05:01:01;95078.88;;;8.21;72.87
11124;BME280;5616;42.692;23.312;2024-03-07T05:03:27;95086.38;;;8.10;72.75
11124;BME280;5616;42.692;23.312;2024-03-07T05:05:53;95086.38;;;8.10;72.52
11124;BME280;5616;42.692;23.312;2024-03-07T05:08:18;95092.13;;;8.12;72.55
11124;BME280;5616;42.692;23.312;2024-03-07T05:10:44;95088.38;;;8.08;73.34
11124;BME280;5616;42.692;23.312;2024-03-07T05:13:09;95082.47;;;8.01;73.13
11124;BME280;5616;42.692;23.312;2024-03-07T05:15:36;95087.97;;;7.98;73.49
11124;BME280;5616;42.692;23.312;2024-03-07T05:18:02;95081.28;;;7.97;73.78
11124;BME280;5616;42.692;23.312;2024-03-07T05:20:27;95079.28;;;7.99;73.19
11124;BME280;5616;42.692;23.312;2024-03-07T05:22:54;95078.88;;;8.02;72.63
11124;BME280;5616;42.692;23.312;2024-03-07T05:25:20;95090.91;;;7.95;71.66
11124;BME280;5616;42.692;23.312;2024-03-07T05:27:47;95095.06;;;7.82;71.78
11124;BME280;5616;42.692;23.312;2024-03-07T05:30:15;95100.53;;;7.73;71.15
11124;BME280;5616;42.692;23.312;2024-03-07T05:32:40;95108.03;;;7.74;72.81
11124;BME280;5616;42.692;23.312;2024-03-07T05:35:06;95108.44;;;7.71;72.39
11124;BME280;5616;42.692;23.312;2024-03-07T05:37:32;95109.19;;;7.59;71.95
11124;BME280;5616;42.692;23.312;2024-03-07T05:39:58;95106.78;;;7.44;73.05
11124;BME280;5616;42.692;23.312;2024-03-07T05:42:24;95115.09;;;7.46;72.62
11124;BME280;5616;42.692;23.312;2024-03-07T05:44:51;95109.97;;;7.46;73.34
11124;BME280;5616;42.692;23.312;2024-03-07T05:47:19;95106.78;;;7.44;72.72
11124;BME280;5616;42.692;23.312;2024-03-07T05:49:44;95111.16;;;7.50;73.78
11124;BME280;5616;42.692;23.312;2024-03-07T05:52:10;95121.00;;;7.60;73.94
11124;BME280;5616;42.692;23.312;2024-03-07T05:54:35;95107.63;;;7.64;73.65
11124;BME280;5616;42.692;23.312;2024-03-07T05:57:02;95108.44;;;7.65;73.36
11124;BME280;5616;42.692;23.312;2024-03-07T05:59:27;95107.25;;;7.67;73.81
11124;BME280;5616;42.692;23.312;2024-03-07T06:01:57;95117.50;;;7.67;74.70
11124;BME280;5616;42.692;23.312;2024-03-07T06:04:22;95120.63;;;7.63;74.96
11124;BME280;5616;42.692;23.312;2024-03-07T06:06:48;95112.31;;;7.54;75.30
11124;BME280;5616;42.692;23.312;2024-03-07T06:09:14;95116.06;;;7.58;72.15
11124;BME280;5616;42.692;23.312;2024-03-07T06:11:40;95126.94;;;7.60;73.40
11124;BME280;5616;42.692;23.312;2024-03-07T06:14:09;95117.84;;;7.51;74.75
11124;BME280;5616;42.692;23.312;2024-03-07T06:16:38;95124.16;;;7.55;75.41
11124;BME280;5616;42.692;23.312;2024-03-07T06:19:05;95131.66;;;7.57;73.96
11124;BME280;5616;42.692;23.312;2024-03-07T06:21:35;95142.28;;;7.60;74.81
11124;BME280;5616;42.692;23.312;2024-03-07T06:24:01;95140.28;;;7.49;72.80
11124;BME280;5616;42.692;23.312;2024-03-07T06:26:37;95148.16;;;7.48;72.76
11124;BME280;5616;42.692;23.312;2024-03-07T06:29:17;95145.00;;;7.52;73.43
11124;BME280;5616;42.692;23.312;2024-03-07T06:31:43;95143.03;;;7.54;73.38
11124;BME280;5616;42.692;23.312;2024-03-07T06:34:09;95134.44;;;7.88;84.61
11124;BME280;5616;42.692;23.312;2024-03-07T06:36:35;95140.16;;;7.83;73.58
11124;BME280;5616;42.692;23.312;2024-03-07T06:39:00;95130.50;;;7.85;72.96
11124;BME280;5616;42.692;23.312;2024-03-07T06:41:26;95137.63;;;7.90;72.18
11124;BME280;5616;42.692;23.312;2024-03-07T06:43:51;95124.81;;;7.97;71.62
11124;BME280;5616;42.692;23.312;2024-03-07T06:46:18;95131.31;;;8.06;71.46
11124;BME280;5616;42.692;23.312;2024-03-07T06:48:45;95130.50;;;8.05;71.83
11124;BME280;5616;42.692;23.312;2024-03-07T06:51:11;95141.94;;;8.03;71.57
11124;BME280;5616;42.692;23.312;2024-03-07T06:53:36;95143.94;;;8.07;73.30
11124;BME280;5616;42.692;23.312;2024-03-07T06:56:02;95145.53;;;8.08;72.67
11124;BME280;5616;42.692;23.312;2024-03-07T06:58:28;95152.59;;;8.13;68.97
11124;BME280;5616;42.692;23.312;2024-03-07T07:00:53;95155.16;;;8.13;68.92
11124;BME280;5616;42.692;23.312;2024-03-07T07:03:22;95153.78;;;8.17;70.94
11124;BME280;5616;42.692;23.312;2024-03-07T07:05:49;95144.13;;;8.19;69.83
11124;BME280;5616;42.692;23.312;2024-03-07T07:08:16;95136.84;;;8.16;69.70
11124;BME280;5616;42.692;23.312;2024-03-07T07:10:42;95134.88;;;8.18;69.63
11124;BME280;5616;42.692;23.312;2024-03-07T07:13:08;95133.28;;;8.17;70.06
11124;BME280;5616;42.692;23.312;2024-03-07T07:15:34;95130.16;;;8.15;69.01
11124;BME280;5616;42.692;23.312;2024-03-07T07:18:02;95116.53;;;8.21;70.63
11124;BME280;5616;42.692;23.312;2024-03-07T07:20:28;95119.88;;;8.28;70.99
11124;BME280;5616;42.692;23.312;2024-03-07T07:22:54;95123.88;;;8.30;70.48
11124;BME280;5616;42.692;23.312;2024-03-07T07:25:20;95134.53;;;8.34;70.45
11124;BME280;5616;42.692;23.312;2024-03-07T07:27:51;95135.25;;;8.28;69.78
11124;BME280;5616;42.692;23.312;2024-03-07T07:30:19;95126.22;;;8.32;70.96
11124;BME280;5616;42.692;23.312;2024-03-07T07:32:45;95127.41;;;8.36;70.36
11124;BME280;5616;42.692;23.312;2024-03-07T07:35:11;95119.72;;;8.36;70.10
11124;BME280;5616;42.692;23.312;2024-03-07T07:37:41;95119.13;;;8.41;69.95
11124;BME280;5616;42.692;23.312;2024-03-07T07:40:09;95129.38;;;8.47;71.37
11124;BME280;5616;42.692;23.312;2024-03-07T07:42:35;95129.34;;;8.60;71.25
11124;BME280;5616;42.692;23.312;2024-03-07T07:45:10;95125.22;;;8.59;68.38
11124;BME280;5616;42.692;23.312;2024-03-07T07:47:48;95120.25;;;8.64;68.01
11124;BME280;5616;42.692;23.312;2024-03-07T07:50:21;95114.34;;;8.70;68.76
11124;BME280;5616;42.692;23.312;2024-03-07T07:52:51;95121.81;;;8.78;70.85
11124;BME280;5616;42.692;23.312;2024-03-07T07:55:20;95110.75;;;8.78;69.30
11124;BME280;5616;42.692;23.312;2024-03-07T07:57:50;95126.56;;;8.81;69.28
11124;BME280;5616;42.692;23.312;2024-03-07T08:00:20;95127.16;;;8.77;68.07
11124;BME280;5616;42.692;23.312;2024-03-07T08:02:53;95122.41;;;8.67;68.09
11124;BME280;5616;42.692;23.312;2024-03-07T08:05:30;95127.38;;;8.62;70.24
11124;BME280;5616;42.692;23.312;2024-03-07T08:08:00;95132.50;;;8.62;68.74
11124;BME280;5616;42.692;23.312;2024-03-07T08:10:28;95129.75;;;8.70;68.15
11124;BME280;5616;42.692;23.312;2024-03-07T08:12:58;95139.19;;;8.76;69.22
11124;BME280;5616;42.692;23.312;2024-03-07T08:15:25;95146.28;;;8.74;65.95
11124;BME280;5616;42.692;23.312;2024-03-07T08:17:51;95143.88;;;8.86;68.18
11124;BME280;5616;42.692;23.312;2024-03-07T08:20:21;95138.34;;;8.96;68.48
11124;BME280;5616;42.692;23.312;2024-03-07T08:22:48;95145.03;;;8.97;67.90
11124;BME280;5616;42.692;23.312;2024-03-07T08:25:21;95147.22;;;9.00;68.64
11124;BME280;5616;42.692;23.312;2024-03-07T08:27:49;95143.66;;;9.01;68.17
11124;BME280;5616;42.692;23.312;2024-03-07T08:30:14;95150.56;;;9.07;69.08
11124;BME280;5616;42.692;23.312;2024-03-07T08:32:41;95161.22;;;9.10;69.12
11124;BME280;5616;42.692;23.312;2024-03-07T08:35:08;95170.69;;;9.10;68.61
11124;BME280;5616;42.692;23.312;2024-03-07T08:37:41;95166.72;;;9.14;68.19
11124;BME280;5616;42.692;23.312;2024-03-07T08:40:08;95164.53;;;9.17;67.06
11124;BME280;5616;42.692;23.312;2024-03-07T08:42:40;95175.00;;;9.16;67.14
11124;BME280;5616;42.692;23.312;2024-03-07T08:45:09;95164.94;;;9.21;66.93
11124;BME280;5616;42.692;23.312;2024-03-07T08:47:36;95176.16;;;9.26;68.50
11124;BME280;5616;42.692;23.312;2024-03-07T08:50:03;95174.94;;;9.29;67.71
11124;BME280;5616;42.692;23.312;2024-03-07T08:52:36;95179.50;;;9.27;68.59
11124;BME280;5616;42.692;23.312;2024-03-07T08:55:04;95188.38;;;9.31;67.92
11124;BME280;5616;42.692;23.312;2024-03-07T08:57:30;95186.00;;;9.36;67.34
11124;BME280;5616;42.692;23.312;2024-03-07T08:59:56;95184.84;;;9.32;66.32
11124;BME280;5616;42.692;23.312;2024-03-07T09:02:21;95186.38;;;9.33;66.93
11124;BME280;5616;42.692;23.312;2024-03-07T09:04:47;95185.22;;;9.29;65.38
11124;BME280;5616;42.692;23.312;2024-03-07T09:07:12;95189.53;;;9.42;66.32
11124;BME280;5616;42.692;23.312;2024-03-07T09:09:42;95187.75;;;9.42;67.39
11124;BME280;5616;42.692;23.312;2024-03-07T09:12:11;95190.09;;;9.44;67.51
11124;BME280;5616;42.692;23.312;2024-03-07T09:14:37;95192.66;;;9.44;64.54
11124;BME280;5616;42.692;23.312;2024-03-07T09:17:03;95186.38;;;9.46;66.08
11124;BME280;5616;42.692;23.312;2024-03-07T09:19:32;95187.16;;;9.47;67.33
11124;BME280;5616;42.692;23.312;2024-03-07T09:21:58;95186.81;;;9.30;66.71
11124;BME280;5616;42.692;23.312;2024-03-07T09:24:25;95194.13;;;9.26;65.39
11124;BME280;5616;42.692;23.312;2024-03-07T09:26:51;95187.25;;;9.14;66.66
11124;BME280;5616;42.692;23.312;2024-03-07T09:29:18;95198.28;;;9.21;67.57
11124;BME280;5616;42.692;23.312;2024-03-07T09:31:50;95188.38;;;9.31;66.66
11124;BME280;5616;42.692;23.312;2024-03-07T09:34:20;95179.88;;;9.37;67.09
11124;BME280;5616;42.692;23.312;2024-03-07T09:36:48;95188.75;;;9.41;68.68
11124;BME280;5616;42.692;23.312;2024-03-07T09:39:15;95194.22;;;9.51;67.84
11124;BME280;5616;42.692;23.312;2024-03-07T09:41:40;95191.09;;;9.49;66.91
11124;BME280;5616;42.692;23.312;2024-03-07T09:44:08;95197.41;;;9.53;66.13
11124;BME280;5616;42.692;23.312;2024-03-07T09:46:34;95193.44;;;9.57;65.87
11124;BME280;5616;42.692;23.312;2024-03-07T09:49:01;95192.22;;;9.60;66.38
11124;BME280;5616;42.692;23.312;2024-03-07T09:51:27;95201.09;;;9.64;65.74
11124;BME280;5616;42.692;23.312;2024-03-07T09:53:56;95200.72;;;9.60;65.77
11124;BME280;5616;42.692;23.312;2024-03-07T09:56:24;95199.31;;;9.64;66.94
11124;BME280;5616;42.692;23.312;2024-03-07T09:58:51;95199.09;;;9.72;66.34
11124;BME280;5616;42.692;23.312;2024-03-07T10:01:21;95181.13;;;9.72;66.61
11124;BME280;5616;42.692;23.312;2024-03-07T10:03:47;95174.00;;;9.68;66.84
11124;BME280;5616;42.692;23.312;2024-03-07T10:06:13;95176.03;;;9.59;69.10
11124;BME280;5616;42.692;23.312;2024-03-07T10:08:42;95176.63;;;9.61;69.20
11124;BME280;5616;42.692;23.312;2024-03-07T10:11:08;95177.25;;;9.50;69.26
11124;BME280;5616;42.692;23.312;2024-03-07T10:13:35;95171.13;;;9.51;71.22
11124;BME280;5616;42.692;23.312;2024-03-07T10:16:01;95170.88;;;9.59;70.25
11124;BME280;5616;42.692;23.312;2024-03-07T10:18:26;95160.94;;;9.69;67.86
11124;BME280;5616;42.692;23.312;2024-03-07T10:20:53;95163.78;;;9.93;70.95
11124;BME280;5616;42.692;23.312;2024-03-07T10:23:20;95164.22;;;10.21;70.44
11124;BME280;5616;42.692;23.312;2024-03-07T10:25:46;95160.41;;;10.30;67.39
11124;BME280;5616;42.692;23.312;2024-03-07T10:28:12;95161.94;;;10.38;66.64
11124;BME280;5616;42.692;23.312;2024-03-07T10:30:42;95162.44;;;10.46;65.71
11124;BME280;5616;42.692;23.312;2024-03-07T10:33:10;95159.69;;;10.48;67.37
11124;BME280;5616;42.692;23.312;2024-03-07T10:35:38;95155.47;;;10.53;65.05
11124;BME280;5616;42.692;23.312;2024-03-07T10:38:03;95148.09;;;10.57;62.57
11124;BME280;5616;42.692;23.312;2024-03-07T10:40:32;95149.63;;;10.64;63.12
11124;BME280;5616;42.692;23.312;2024-03-07T10:42:58;95152.16;;;10.71;64.84
11124;BME280;5616;42.692;23.312;2024-03-07T10:45:29;95153.94;;;10.70;61.97
11124;BME280;5616;42.692;23.312;2024-03-07T10:47:57;95156.50;;;10.70;62.86
11124;BME280;5616;42.692;23.312;2024-03-07T10:50:43;95148.63;;;10.65;63.96
11124;BME280;5616;42.692;23.312;2024-03-07T10:53:32;95150.34;;;10.71;64.09
11124;BME280;5616;42.692;23.312;2024-03-07T10:58:38;95139.28;;;10.71;61.72
11124;BME280;5616;42.692;23.312;2024-03-07T11:01:10;95140.78;;;10.78;61.94
11124;BME280;5616;42.692;23.312;2024-03-07T11:03:39;95139.78;;;10.79;62.12
11124;BME280;5616;42.692;23.312;2024-03-07T11:06:08;95141.50;;;10.86;62.21
11124;BME280;5616;42.692;23.312;2024-03-07T11:08:37;95139.22;;;10.77;63.85
11124;BME280;5616;42.692;23.312;2024-03-07T11:11:04;95134.81;;;10.85;64.04
11124;BME280;5616;42.692;23.312;2024-03-07T11:13:33;95126.00;;;10.92;62.00
11124;BME280;5616;42.692;23.312;2024-03-07T11:16:00;95132.94;;;10.92;60.83
11124;BME280;5616;42.692;23.312;2024-03-07T11:18:27;95134.72;;;10.91;61.34
11124;BME280;5616;42.692;23.312;2024-03-07T11:20:54;95131.53;;;10.96;59.82
11124;BME280;5616;42.692;23.312;2024-03-07T11:26:09;95129.28;;;10.81;60.44
11124;BME280;5616;42.692;23.312;2024-03-07T11:28:35;95123.28;;;10.87;62.07
11124;BME280;5616;42.692;23.312;2024-03-07T11:31:31;95120.56;;;10.82;61.64
11124;BME280;5616;42.692;23.312;2024-03-07T11:34:18;95132.50;;;10.76;63.34
11124;BME280;5616;42.692;23.312;2024-03-07T11:36:48;95130.19;;;10.68;60.72
11124;BME280;5616;42.692;23.312;2024-03-07T11:39:43;95127.50;;;10.63;62.25
11124;BME280;5616;42.692;23.312;2024-03-07T11:42:33;95115.84;;;10.36;62.12
11124;BME280;5616;42.692;23.312;2024-03-07T11:45:03;95125.28;;;10.42;63.79
11124;BME280;5616;42.692;23.312;2024-03-07T11:47:37;95118.59;;;10.41;63.30
11124;BME280;5616;42.692;23.312;2024-03-07T11:50:06;95115.44;;;10.39;62.40
11124;BME280;5616;42.692;23.312;2024-03-07T11:52:39;95123.38;;;10.38;61.67
11124;BME280;5616;42.692;23.312;2024-03-07T11:55:09;95117.44;;;10.37;65.76
11124;BME280;5616;42.692;23.312;2024-03-07T11:57:35;95131.66;;;10.40;64.52
11124;BME280;5616;42.692;23.312;2024-03-07T12:00:02;95114.44;;;10.40;64.50
11124;BME280;5616;42.692;23.312;2024-03-07T12:02:36;95115.34;;;10.46;65.17
11124;BME280;5616;42.692;23.312;2024-03-07T12:05:03;95111.38;;;10.50;61.74
11124;BME280;5616;42.692;23.312;2024-03-07T12:07:33;95105.03;;;10.52;61.59
11124;BME280;5616;42.692;23.312;2024-03-07T12:10:03;95114.03;;;10.61;64.49
11124;BME280;5616;42.692;23.312;2024-03-07T12:12:30;95107.63;;;10.70;62.13
11124;BME280;5616;42.692;23.312;2024-03-07T12:14:56;95117.50;;;10.73;64.88
11124;BME280;5616;42.692;23.312;2024-03-07T12:17:22;95112.47;;;10.78;64.57
11124;BME280;5616;42.692;23.312;2024-03-07T12:19:48;95112.72;;;10.77;63.25
11124;BME280;5616;42.692;23.312;2024-03-07T12:22:19;95111.91;;;10.76;63.49
11124;BME280;5616;42.692;23.312;2024-03-07T12:24:58;95111.19;;;10.69;62.65
11124;BME280;5616;42.692;23.312;2024-03-07T12:27:24;95121.06;;;10.72;61.93
11124;BME280;5616;42.692;23.312;2024-03-07T12:29:50;95113.19;;;10.67;61.20
11124;BME280;5616;42.692;23.312;2024-03-07T12:32:17;95118.31;;;10.67;61.19
11124;BME280;5616;42.692;23.312;2024-03-07T12:34:43;95121.13;;;10.66;59.81
11124;BME280;5616;42.692;23.312;2024-03-07T12:37:12;95115.72;;;10.49;60.88
11124;BME280;5616;42.692;23.312;2024-03-07T12:39:45;95114.28;;;10.35;62.00
11124;BME280;5616;42.692;23.312;2024-03-07T12:42:17;95119.84;;;10.32;61.79
11124;BME280;5616;42.692;23.312;2024-03-07T12:44:44;95110.94;;;10.35;62.32
11124;BME280;5616;42.692;23.312;2024-03-07T12:49:42;95101.28;;;10.30;64.03
11124;BME280;5616;42.692;23.312;2024-03-07T12:52:08;95102.25;;;10.29;64.44
11124;BME280;5616;42.692;23.312;2024-03-07T12:54:37;95111.81;;;10.22;64.46
11124;BME280;5616;42.692;23.312;2024-03-07T12:57:12;95109.25;;;10.22;63.63
11124;BME280;5616;42.692;23.312;2024-03-07T12:59:37;95099.13;;;10.27;63.26
11124;BME280;5616;42.692;23.312;2024-03-07T13:02:09;95095.28;;;10.36;64.68
11124;BME280;5616;42.692;23.312;2024-03-07T13:04:36;95092.88;;;10.41;64.25
11124;BME280;5616;42.692;23.312;2024-03-07T13:07:05;95104.72;;;10.42;62.46
11124;BME280;5616;42.692;23.312;2024-03-07T13:09:33;95102.81;;;10.31;61.51
11124;BME280;5616;42.692;23.312;2024-03-07T13:11:59;95102.94;;;10.18;62.13
11124;BME280;5616;42.692;23.312;2024-03-07T13:14:31;95102.38;;;10.16;62.54
11124;BME280;5616;42.692;23.312;2024-03-07T13:17:03;95100.81;;;10.15;64.20